Time;durP1;ratioP1;P1;durP2;ratioP2;P2;SDS_P1;SDS_P2;PMS_P1;PMS_P2;Temp;Humidity;BMP_temperature;BMP_pressure;BME280_temperature;BME280_humidity;BME280_pressure;Samples;Min_cycle;Max_cycle;Signal;HPM_P1;HPM_P2
2023/05/22 00:00:35;;;;;;;25.30;22.07;;;20.10;1.00;;;;;;5100901;28;20186;-82
2023/05/22 00:03:02;;;;;;;23.80;21.23;;;20.10;1.00;;;;;;5105111;28;20455;-82
2023/05/22 00:05:29;;;;;;;22.40;20.00;;;20.00;8.70;;;;;;5105395;28;20455;-82
2023/05/22 00:07:54;;;;;;;21.93;19.63;;;20.00;99.90;;;;;;5106177;28;20467;-82
2023/05/22 00:10:20;;;;;;;20.83;18.43;;;19.90;37.00;;;;;;5106424;28;20440;-82
2023/05/22 00:12:45;;;;;;;22.00;19.33;;;19.90;1.00;;;;;;5086467;28;20249;-82
2023/05/22 00:15:11;;;;;;;21.77;19.47;;;19.90;48.10;;;;;;5100868;28;20230;-81
2023/05/22 00:17:37;;;;;;;20.27;18.03;;;19.90;1.00;;;;;;5105519;28;20618;-81
2023/05/22 00:20:06;;;;;;;23.40;20.03;;;19.90;1.00;;;;;;5087851;28;20255;-82
2023/05/22 00:22:34;;;;;;;19.97;17.70;;;19.80;1.00;;;;;;5105121;28;20491;-82
2023/05/22 00:25:01;;;;;;;18.60;16.70;;;19.80;1.00;;;;;;5103275;28;20455;-82
2023/05/22 00:27:27;;;;;;;18.50;16.60;;;19.80;1.00;;;;;;5099048;28;20987;-83
2023/05/22 00:29:52;;;;;;;19.53;17.10;;;19.70;1.00;;;;;;5082330;28;20439;-82
2023/05/22 00:32:18;;;;;;;17.27;15.67;;;19.70;1.00;;;;;;5098647;28;20441;-82
2023/05/22 00:34:43;;;;;;;23.30;17.47;;;19.70;1.00;;;;;;5100532;28;20223;-81
2023/05/22 00:37:09;;;;;;;19.27;17.27;;;19.70;1.00;;;;;;5103170;28;20196;-82
2023/05/22 00:39:35;;;;;;;18.73;16.83;;;19.70;1.00;;;;;;5103094;28;20188;-83
2023/05/22 00:42:00;;;;;;;18.37;16.40;;;19.60;1.00;;;;;;5104585;28;20492;-82
2023/05/22 00:44:26;;;;;;;19.47;17.37;;;19.60;1.00;;;;;;5097964;28;20271;-81
2023/05/22 00:46:52;;;;;;;19.73;16.43;;;19.60;1.00;;;;;;5099141;28;20264;-80
2023/05/22 00:49:17;;;;;;;17.40;15.60;;;19.60;1.00;;;;;;5101036;28;20216;-83
2023/05/22 00:51:43;;;;;;;17.30;15.60;;;19.60;1.00;;;;;;5104202;28;20181;-82
2023/05/22 00:54:10;;;;;;;17.90;15.63;;;19.50;1.00;;;;;;5101124;28;20287;-81
2023/05/22 00:56:36;;;;;;;17.83;15.70;;;19.50;1.00;;;;;;5097607;28;20661;-82
2023/05/22 00:59:03;;;;;;;16.60;14.97;;;19.50;1.00;;;;;;5098222;28;20440;-81
2023/05/22 01:01:32;;;;;;;18.37;16.33;;;19.50;1.00;;;;;;5099768;28;20671;-83
2023/05/22 01:04:02;;;;;;;17.30;15.50;;;19.50;1.00;;;;;;5103923;28;20460;-82
2023/05/22 01:06:30;;;;;;;18.40;16.30;;;19.40;1.00;;;;;;5100978;28;20467;-81
2023/05/22 01:08:56;;;;;;;18.27;16.47;;;19.40;1.00;;;;;;5085754;28;20443;-82
2023/05/22 01:11:38;;;;;;;17.17;15.47;;;19.40;1.00;;;;;;5105437;28;20450;-82
2023/05/22 01:14:09;;;;;;;20.50;15.60;;;19.40;1.00;;;;;;5101285;28;20623;-82
2023/05/22 01:16:51;;;;;;;17.47;15.33;;;19.40;1.00;;;;;;5103148;28;20514;-80
2023/05/22 01:19:36;;;;;;;18.23;16.43;;;19.30;1.00;;;;;;5103619;28;20498;-83
2023/05/22 01:22:28;;;;;;;18.70;16.80;;;19.30;1.00;;;;;;5101737;28;20446;-81
2023/05/22 01:25:17;;;;;;;20.03;17.67;;;19.30;1.00;;;;;;5095593;28;20932;-80
2023/05/22 01:28:07;;;;;;;19.10;17.10;;;19.20;14.80;;;;;;5103851;28;20469;-82
2023/05/22 01:30:41;;;;;;;19.90;17.00;;;19.20;97.10;;;;;;5103624;28;20441;-82
2023/05/22 01:33:08;;;;;;;19.47;17.37;;;19.20;99.90;;;;;;5101594;28;20455;-84
2023/05/22 01:35:36;;;;;;;18.70;16.80;;;19.10;99.90;;;;;;5097069;28;20532;-81
2023/05/22 01:38:02;;;;;;;19.43;17.40;;;19.10;99.90;;;;;;5097022;28;20456;-82
2023/05/22 01:40:29;;;;;;;19.63;16.90;;;19.10;99.90;;;;;;5098141;28;20447;-83
2023/05/22 01:42:55;;;;;;;18.23;16.27;;;19.00;99.90;;;;;;5103036;28;20444;-83
2023/05/22 01:45:20;;;;;;;19.73;17.47;;;19.00;1.00;;;;;;5101790;28;20466;-82
2023/05/22 01:47:46;;;;;;;19.87;17.90;;;18.90;1.00;;;;;;5104621;28;20348;-82
2023/05/22 01:50:12;;;;;;;21.27;16.97;;;18.90;1.00;;;;;;5099039;28;20447;-83
2023/05/22 01:52:55;;;;;;;21.03;18.80;;;18.90;1.00;;;;;;5105914;28;20198;-82
2023/05/22 01:55:49;;;;;;;23.37;17.37;;;18.90;1.00;;;;;;5105996;28;20975;-78
2023/05/22 01:58:33;;;;;;;18.57;16.67;;;18.80;1.00;;;;;;5086897;28;20475;-80
2023/05/22 02:01:00;;;;;;;20.17;18.07;;;18.80;26.70;;;;;;5080676;28;21013;-80
2023/05/22 02:03:30;;;;;;;20.67;18.47;;;18.70;1.00;;;;;;5102150;28;20476;-81
2023/05/22 02:05:59;;;;;;;21.83;19.50;;;18.70;99.90;;;;;;5109133;28;20463;-81
2023/05/22 02:08:26;;;;;;;21.37;19.00;;;18.70;99.90;;;;;;5104107;28;20513;-81
2023/05/22 02:10:55;;;;;;;23.30;20.67;;;18.70;99.90;;;;;;5105359;28;20448;-82
2023/05/22 02:13:21;;;;;;;22.30;19.70;;;18.60;99.90;;;;;;5107184;28;20428;-82
2023/05/22 02:15:47;;;;;;;23.93;21.43;;;18.60;99.90;;;;;;5103446;28;20468;-81
2023/05/22 02:18:13;;;;;;;25.43;22.30;;;18.50;1.00;;;;;;5107620;28;20514;-80
2023/05/22 02:20:40;;;;;;;25.67;22.60;;;18.50;1.00;;;;;;5104554;28;20853;-82
2023/05/22 02:23:06;;;;;;;29.20;24.07;;;18.40;1.00;;;;;;5107719;28;20242;-82
2023/05/22 02:25:31;;;;;;;30.40;26.30;;;18.40;13.80;;;;;;5106465;28;20479;-82
2023/05/22 02:27:57;;;;;;;30.70;27.17;;;18.30;99.90;;;;;;5088716;28;20305;-82
2023/05/22 02:30:24;;;;;;;29.37;26.13;;;18.30;1.00;;;;;;5101488;28;20201;-81
2023/05/22 02:32:51;;;;;;;32.87;26.90;;;18.20;1.00;;;;;;5103169;28;20189;-82
2023/05/22 02:35:17;;;;;;;31.73;27.30;;;18.10;30.40;;;;;;5105766;28;20469;-79
2023/05/22 02:37:42;;;;;;;34.40;29.77;;;18.10;99.90;;;;;;5107137;28;20419;-83
2023/05/22 02:40:08;;;;;;;35.80;30.53;;;18.00;1.00;;;;;;5095110;28;20205;-80
2023/05/22 02:42:35;;;;;;;34.50;30.00;;;18.00;1.00;;;;;;5101607;28;20194;-83
2023/05/22 02:45:01;;;;;;;39.03;31.80;;;18.00;96.20;;;;;;5101518;28;20460;-82
2023/05/22 02:47:26;;;;;;;35.20;31.40;;;17.90;99.90;;;;;;5087914;28;20491;-81
2023/05/22 02:49:52;;;;;;;38.97;32.17;;;17.90;99.90;;;;;;5100258;28;20434;-82
2023/05/22 02:52:17;;;;;;;38.50;30.20;;;17.80;1.00;;;;;;5076817;28;20198;-80
2023/05/22 02:54:43;;;;;;;37.00;30.43;;;17.80;1.00;;;;;;5103219;28;20565;-81
2023/05/22 02:57:09;;;;;;;34.63;29.87;;;17.70;2.50;;;;;;5105038;28;20195;-82
2023/05/22 02:59:37;;;;;;;42.77;31.47;;;17.70;99.90;;;;;;5105034;28;20230;-79
2023/05/22 03:02:04;;;;;;;35.90;28.73;;;17.60;99.90;;;;;;5094322;28;20225;-82
2023/05/22 03:04:29;;;;;;;31.20;27.87;;;17.60;99.90;;;;;;5086113;28;20513;-82
2023/05/22 03:06:55;;;;;;;33.93;28.27;;;17.60;99.90;;;;;;5104696;28;20476;-81
2023/05/22 03:09:20;;;;;;;40.33;30.07;;;17.50;99.90;;;;;;5102546;28;20194;-81
2023/05/22 03:11:46;;;;;;;33.30;29.30;;;17.50;99.90;;;;;;5105681;28;20218;-81
2023/05/22 03:14:12;;;;;;;36.60;28.97;;;17.40;1.00;;;;;;5101473;28;20222;-82
2023/05/22 03:16:37;;;;;;;35.53;30.03;;;17.40;1.00;;;;;;5087463;28;20794;-80
2023/05/22 03:19:14;;;;;;;35.77;28.97;;;17.30;1.00;;;;;;5105199;28;20190;-81
2023/05/22 03:21:40;;;;;;;34.10;28.70;;;17.30;1.00;;;;;;5099137;28;20189;-80
2023/05/22 03:24:06;;;;;;;40.20;30.70;;;17.30;1.00;;;;;;5103574;28;20487;-80
2023/05/22 03:26:32;;;;;;;36.20;30.00;;;17.30;1.00;;;;;;5103246;28;20466;-79
2023/05/22 03:28:58;;;;;;;34.33;30.33;;;17.20;1.00;;;;;;5104677;28;21072;-79
2023/05/22 03:31:25;;;;;;;40.10;31.47;;;17.20;1.00;;;;;;5081594;28;20431;-79
2023/05/22 03:33:50;;;;;;;35.93;29.20;;;17.20;1.00;;;;;;5103331;28;20592;-78
2023/05/22 03:36:16;;;;;;;39.10;30.10;;;17.10;1.00;;;;;;5105830;28;20468;-81
2023/05/22 03:38:42;;;;;;;38.20;29.97;;;17.10;1.00;;;;;;5103277;28;20207;-81
2023/05/22 03:41:07;;;;;;;39.10;29.30;;;17.00;1.00;;;;;;5100458;28;20463;-79
2023/05/22 03:43:33;;;;;;;36.00;29.70;;;17.00;36.20;;;;;;5096202;28;20210;-79
2023/05/22 03:45:59;;;;;;;37.90;29.63;;;17.00;44.40;;;;;;5099879;28;20197;-78
2023/05/22 03:48:25;;;;;;;37.70;28.77;;;16.90;58.80;;;;;;5086350;28;20199;-81
2023/05/22 03:50:50;;;;;;;37.10;28.93;;;16.90;99.90;;;;;;5099874;28;20440;-80
2023/05/22 03:53:16;;;;;;;41.50;31.07;;;16.90;99.90;;;;;;5076019;28;20206;-80
2023/05/22 03:55:42;;;;;;;35.87;29.30;;;16.90;99.90;;;;;;5097400;28;20243;-80
2023/05/22 03:58:07;;;;;;;36.73;30.10;;;16.90;99.90;;;;;;5102941;28;20244;-80
2023/05/22 04:00:33;;;;;;;43.30;29.97;;;16.90;99.90;;;;;;5097326;28;20198;-81
2023/05/22 04:02:59;;;;;;;40.13;30.50;;;16.90;99.90;;;;;;5099605;28;20186;-79
2023/05/22 04:05:25;;;;;;;36.27;29.17;;;16.90;99.90;;;;;;5100641;28;20200;-80
2023/05/22 04:07:50;;;;;;;45.17;31.23;;;16.90;99.90;;;;;;5104146;28;20192;-80
2023/05/22 04:10:16;;;;;;;40.53;31.47;;;16.90;99.90;;;;;;5101382;28;20198;-78
2023/05/22 04:12:41;;;;;;;41.43;31.20;;;16.90;99.90;;;;;;5104152;28;20190;-81
2023/05/22 04:15:08;;;;;;;41.83;33.97;;;16.90;99.90;;;;;;5102541;28;20238;-80
2023/05/22 04:17:37;;;;;;;40.30;30.43;;;16.90;99.90;;;;;;5081822;28;20208;-81
2023/05/22 04:20:04;;;;;;;46.50;31.77;;;17.00;99.90;;;;;;5101404;28;20447;-81
2023/05/22 04:22:29;;;;;;;44.03;29.80;;;17.00;99.90;;;;;;5102731;28;20431;-81
2023/05/22 04:24:55;;;;;;;46.97;32.27;;;17.00;99.90;;;;;;5103057;28;20709;-81
2023/05/22 04:27:23;;;;;;;45.80;33.10;;;17.00;99.90;;;;;;5104456;28;20196;-81
2023/05/22 04:29:49;;;;;;;44.23;33.17;;;17.10;99.90;;;;;;5100697;28;20442;-81
2023/05/22 04:32:20;;;;;;;46.63;32.83;;;17.10;99.90;;;;;;5094052;28;20930;-79
2023/05/22 04:34:49;;;;;;;50.43;33.27;;;17.10;99.90;;;;;;5103333;28;20443;-81
2023/05/22 04:37:14;;;;;;;58.67;36.03;;;17.10;99.90;;;;;;5101728;28;20571;-82
2023/05/22 04:39:40;;;;;;;46.90;33.83;;;17.10;99.90;;;;;;5083098;28;21010;-80
2023/05/22 04:42:06;;;;;;;53.93;34.57;;;17.10;99.90;;;;;;5095761;28;20207;-81
2023/05/22 04:44:33;;;;;;;46.80;34.47;;;17.10;99.90;;;;;;5103800;28;20221;-81
2023/05/22 04:47:02;;;;;;;51.23;33.20;;;17.20;99.90;;;;;;5100076;28;20185;-81
2023/05/22 04:49:28;;;;;;;55.53;35.70;;;17.20;99.90;;;;;;5099273;28;20436;-80
2023/05/22 04:51:57;;;;;;;59.37;38.20;;;17.20;99.90;;;;;;5100416;28;20482;-79
2023/05/22 04:54:23;;;;;;;58.27;36.67;;;17.20;99.90;;;;;;5102513;28;20240;-82
2023/05/22 04:56:50;;;;;;;53.77;37.43;;;17.20;99.90;;;;;;5080974;28;20495;-80
2023/05/22 04:59:16;;;;;;;60.47;36.93;;;17.20;99.90;;;;;;5101408;28;20867;-79
2023/05/22 05:01:45;;;;;;;65.90;37.90;;;17.20;99.90;;;;;;5094367;28;20444;-82
2023/05/22 05:04:10;;;;;;;60.80;39.27;;;17.10;99.90;;;;;;5102199;28;20217;-82
2023/05/22 05:06:39;;;;;;;56.50;37.43;;;17.20;99.90;;;;;;5100528;28;20461;-79
2023/05/22 05:09:07;;;;;;;59.67;40.43;;;17.20;99.90;;;;;;5101855;28;20211;-81
2023/05/22 05:11:33;;;;;;;57.50;37.37;;;17.20;99.90;;;;;;5097938;28;20436;-82
2023/05/22 05:13:59;;;;;;;70.57;37.50;;;17.20;99.90;;;;;;5100683;28;20478;-81
2023/05/22 05:16:25;;;;;;;58.00;37.00;;;17.20;99.90;;;;;;5103536;28;20470;-78
2023/05/22 05:18:52;;;;;;;58.23;38.40;;;17.30;99.90;;;;;;5103617;28;20439;-82
2023/05/22 05:21:18;;;;;;;57.33;37.33;;;17.30;99.90;;;;;;5103283;28;20904;-81
2023/05/22 05:23:44;;;;;;;61.07;39.60;;;17.30;99.90;;;;;;5082919;28;20452;-80
2023/05/22 05:26:09;;;;;;;62.77;39.97;;;17.30;99.90;;;;;;5105739;28;20445;-82
2023/05/22 05:28:36;;;;;;;65.07;41.70;;;17.30;99.90;;;;;;5106619;28;20199;-83
2023/05/22 05:31:02;;;;;;;64.10;39.70;;;17.40;99.90;;;;;;5107473;28;20189;-81
2023/05/22 05:33:27;;;;;;;65.90;39.80;;;17.40;99.90;;;;;;5107948;28;20424;-80
2023/05/22 05:35:53;;;;;;;67.00;44.40;;;17.40;99.90;;;;;;5105577;28;20449;-81
2023/05/22 05:38:19;;;;;;;69.13;43.80;;;17.50;81.40;;;;;;5108153;28;20194;-79
2023/05/22 05:40:45;;;;;;;75.40;44.27;;;17.50;75.90;;;;;;5103921;28;20183;-81
2023/05/22 05:43:14;;;;;;;68.37;44.47;;;17.50;69.30;;;;;;5102703;28;20178;-79
2023/05/22 05:45:45;;;;;;;72.00;43.40;;;17.50;40.50;;;;;;5105442;28;20465;-81
2023/05/22 05:48:10;;;;;;;77.60;46.03;;;17.60;42.50;;;;;;5104468;28;20436;-81
2023/05/22 05:50:36;;;;;;;75.67;45.20;;;17.60;28.60;;;;;;5106745;28;20437;-81
2023/05/22 05:53:02;;;;;;;70.37;41.00;;;17.70;1.00;;;;;;5104090;28;20249;-81
2023/05/22 05:55:27;;;;;;;65.00;42.67;;;17.70;1.00;;;;;;5106042;28;20227;-82
2023/05/22 05:57:53;;;;;;;60.30;39.07;;;17.80;1.00;;;;;;5104864;28;20235;-82
2023/05/22 06:00:21;;;;;;;68.43;40.90;;;17.80;1.00;;;;;;5100587;28;20199;-81
2023/05/22 06:02:47;;;;;;;61.00;37.80;;;17.80;1.00;;;;;;5099446;28;20273;-80
2023/05/22 06:05:14;;;;;;;57.93;40.20;;;17.90;1.00;;;;;;5095296;28;20472;-79
2023/05/22 06:07:39;;;;;;;59.53;38.90;;;18.00;1.00;;;;;;5096960;28;20178;-81
2023/05/22 06:10:07;;;;;;;67.57;39.30;;;18.10;1.00;;;;;;5099952;28;20448;-82
2023/05/22 06:12:32;;;;;;;67.07;44.90;;;18.10;99.90;;;;;;5097593;28;20200;-81
2023/05/22 06:14:58;;;;;;;63.47;38.53;;;18.20;99.90;;;;;;5099879;28;20460;-82
2023/05/22 06:17:23;;;;;;;56.40;36.53;;;18.30;99.90;;;;;;5101690;28;20211;-79
2023/05/22 06:19:49;;;;;;;57.83;36.57;;;18.40;99.90;;;;;;5103033;28;20180;-80
2023/05/22 06:22:15;;;;;;;47.43;34.60;;;18.50;1.00;;;;;;5095612;28;20187;-80
2023/05/22 06:24:40;;;;;;;53.73;34.50;;;18.50;1.00;;;;;;5097918;28;20437;-81
2023/05/22 06:27:06;;;;;;;59.43;41.23;;;18.60;99.90;;;;;;5102502;28;20571;-80
2023/05/22 06:29:32;;;;;;;51.23;37.07;;;18.70;1.00;;;;;;5080066;28;20195;-81
2023/05/22 06:31:57;;;;;;;50.40;34.83;;;18.80;1.00;;;;;;5098070;28;20191;-80
2023/05/22 06:34:24;;;;;;;51.30;35.67;;;18.80;99.90;;;;;;5100729;28;20220;-82
2023/05/22 06:36:50;;;;;;;49.93;35.70;;;18.90;44.70;;;;;;5087270;28;20209;-83
2023/05/22 06:39:17;;;;;;;43.83;32.90;;;18.90;1.00;;;;;;5089898;28;20442;-84
2023/05/22 06:41:42;;;;;;;56.63;38.10;;;18.90;1.00;;;;;;5094226;28;20591;-81
2023/05/22 06:44:08;;;;;;;50.10;36.20;;;19.00;99.90;;;;;;5101623;28;20454;-83
2023/05/22 06:46:34;;;;;;;50.60;34.40;;;19.10;99.90;;;;;;5091708;28;21021;-84
2023/05/22 06:48:59;;;;;;;48.40;35.30;;;19.20;1.00;;;;;;5092440;28;20262;-84
2023/05/22 06:51:25;;;;;;;43.33;34.77;;;19.20;1.00;;;;;;5101251;28;20417;-81
2023/05/22 06:53:51;;;;;;;46.00;34.70;;;19.20;99.90;;;;;;5083446;28;20797;-84
2023/05/22 06:56:21;;;;;;;52.80;37.03;;;19.10;99.90;;;;;;5087870;28;20495;-84
2023/05/22 06:58:47;;;;;;;48.33;35.67;;;19.10;1.00;;;;;;5085257;28;20214;-84
2023/05/22 07:01:12;;;;;;;51.20;36.00;;;19.20;1.00;;;;;;5084711;28;20585;-84
2023/05/22 07:03:38;;;;;;;48.53;36.03;;;19.30;99.90;;;;;;5080851;28;20181;-82
2023/05/22 07:06:04;;;;;;;44.27;34.50;;;19.30;99.90;;;;;;5091054;28;20654;-84
2023/05/22 07:08:32;;;;;;;47.77;36.17;;;19.40;1.00;;;;;;5100994;28;20192;-83
2023/05/22 07:11:00;;;;;;;47.97;36.03;;;19.40;1.00;;;;;;5082135;28;20494;-83
2023/05/22 07:13:27;;;;;;;53.40;37.40;;;19.30;1.00;;;;;;5100523;28;20445;-83
2023/05/22 07:15:53;;;;;;;46.20;34.60;;;19.40;1.00;;;;;;5091308;28;20438;-82
2023/05/22 07:18:18;;;;;;;48.63;35.57;;;19.40;1.00;;;;;;5064495;28;20462;-82
2023/05/22 07:20:44;;;;;;;55.83;38.10;;;19.40;1.00;;;;;;5098349;28;20573;-83
2023/05/22 07:23:13;;;;;;;55.60;37.30;;;19.40;20.40;;;;;;5076396;28;20176;-84
2023/05/22 07:25:38;;;;;;;46.67;35.00;;;19.40;1.00;;;;;;5092304;28;20483;-83
2023/05/22 07:28:07;;;;;;;51.57;36.80;;;19.40;1.00;;;;;;5099727;28;20443;-83
2023/05/22 07:30:34;;;;;;;48.77;37.73;;;19.50;99.90;;;;;;5092727;28;20559;-81
2023/05/22 07:33:00;;;;;;;59.10;39.40;;;19.50;99.90;;;;;;5101584;28;20417;-84
2023/05/22 07:35:26;;;;;;;49.10;35.70;;;19.50;1.00;;;;;;5075304;28;20467;-84
2023/05/22 07:37:51;;;;;;;50.37;38.37;;;19.60;99.90;;;;;;5082723;28;20291;-84
2023/05/22 07:40:17;;;;;;;58.27;37.50;;;19.60;99.90;;;;;;5095137;28;20187;-84
2023/05/22 07:42:42;;;;;;;53.57;37.83;;;19.50;99.90;;;;;;5084496;28;20192;-83
2023/05/22 07:45:09;;;;;;;56.23;39.00;;;19.60;99.90;;;;;;5096948;28;20215;-83
2023/05/22 07:47:34;;;;;;;66.33;43.70;;;19.60;99.90;;;;;;5092971;28;20186;-84
2023/05/22 07:50:03;;;;;;;64.23;43.37;;;19.60;99.90;;;;;;5081118;28;20517;-85
2023/05/22 07:52:29;;;;;;;61.80;43.93;;;19.70;99.90;;;;;;5085426;28;20173;-84
2023/05/22 07:54:54;;;;;;;66.10;45.67;;;19.80;15.50;;;;;;5073195;28;20995;-84
2023/05/22 07:57:21;;;;;;;67.80;45.23;;;19.80;1.00;;;;;;5092520;28;20470;-84
2023/05/22 07:59:47;;;;;;;64.20;43.90;;;19.80;1.00;;;;;;5097867;28;20172;-85
2023/05/22 08:02:13;;;;;;;69.53;43.23;;;19.90;1.00;;;;;;5091943;28;20437;-82
2023/05/22 08:04:39;;;;;;;64.07;45.70;;;19.90;99.90;;;;;;5081506;28;20314;-83
2023/05/22 08:07:05;;;;;;;59.97;43.57;;;20.00;99.90;;;;;;5094212;28;20185;-80
2023/05/22 08:09:31;;;;;;;69.67;46.07;;;20.00;99.90;;;;;;5097916;28;20442;-84
2023/05/22 08:11:56;;;;;;;68.27;44.90;;;20.10;99.90;;;;;;5094643;28;20444;-82
2023/05/22 08:14:22;;;;;;;72.70;45.47;;;20.20;99.90;;;;;;5096549;28;20230;-82
2023/05/22 08:16:48;;;;;;;60.47;44.73;;;20.30;2.20;;;;;;5100680;28;20266;-85
2023/05/22 08:19:13;;;;;;;55.30;42.60;;;20.50;1.00;;;;;;5100484;28;20480;-84
2023/05/22 08:21:39;;;;;;;58.50;42.80;;;20.70;1.00;;;;;;5100871;28;20203;-83
2023/05/22 08:24:06;;;;;;;71.60;45.20;;;20.70;1.00;;;;;;5097766;28;20661;-85
2023/05/22 08:26:32;;;;;;;55.13;41.40;;;20.60;99.90;;;;;;5100327;28;20236;-84
2023/05/22 08:28:58;;;;;;;64.37;43.57;;;20.70;99.90;;;;;;5097732;28;20503;-84
2023/05/22 08:31:24;;;;;;;61.23;42.83;;;20.70;99.90;;;;;;5084044;28;20415;-84
2023/05/22 08:33:49;;;;;;;60.10;46.37;;;20.70;99.90;;;;;;5101378;28;20435;-84
2023/05/22 08:36:15;;;;;;;62.63;42.20;;;20.70;99.90;;;;;;5101574;28;20195;-85
2023/05/22 08:38:41;;;;;;;58.27;41.53;;;20.80;99.90;;;;;;5102571;28;20191;-82
2023/05/22 08:41:07;;;;;;;53.03;39.87;;;20.80;99.90;;;;;;5100066;28;20188;-85
2023/05/22 08:43:33;;;;;;;59.67;40.80;;;20.90;99.90;;;;;;5100653;28;20205;-83
2023/05/22 08:46:04;;;;;;;60.57;40.70;;;21.00;52.70;;;;;;5093049;28;20470;-84
2023/05/22 08:48:31;;;;;;;54.93;40.67;;;21.20;4.20;;;;;;5085083;28;20458;-85
2023/05/22 08:51:01;;;;;;;54.53;41.43;;;21.40;1.00;;;;;;5100765;28;20492;-83
2023/05/22 08:53:29;;;;;;;59.63;39.03;;;21.60;1.00;;;;;;5102984;28;20420;-85
2023/05/22 08:55:55;;;;;;;49.50;38.90;;;21.90;1.00;;;;;;5100126;28;20499;-85
2023/05/22 08:58:21;;;;;;;48.00;38.40;;;21.90;1.00;;;;;;5091070;28;20469;-85
2023/05/22 09:00:47;;;;;;;50.47;39.13;;;22.10;1.00;;;;;;5094934;28;20422;-84
2023/05/22 09:03:13;;;;;;;59.77;40.93;;;22.30;1.00;;;;;;5097228;28;20193;-85
2023/05/22 09:05:40;;;;;;;56.57;41.50;;;22.50;1.00;;;;;;5099875;28;20460;-84
2023/05/22 09:08:08;;;;;;;53.63;41.73;;;22.60;99.90;;;;;;5103031;28;20479;-85
2023/05/22 09:10:34;;;;;;;57.60;44.17;;;22.70;99.90;;;;;;5103985;28;20433;-85
2023/05/22 09:13:03;;;;;;;65.60;45.87;;;22.80;99.90;;;;;;5099656;28;20865;-85
2023/05/22 09:15:31;;;;;;;64.37;45.37;;;23.00;99.90;;;;;;5102359;28;20199;-85
2023/05/22 09:17:58;;;;;;;51.20;41.70;;;23.00;99.90;;;;;;5101743;28;20491;-84
2023/05/22 09:20:23;;;;;;;62.77;42.30;;;22.90;99.90;;;;;;5082539;28;20986;-85
2023/05/22 09:22:49;;;;;;;60.50;42.37;;;22.90;99.90;;;;;;5101556;28;20423;-82
2023/05/22 09:25:19;;;;;;;60.30;44.70;;;22.90;99.90;;;;;;5099482;28;20227;-85
2023/05/22 09:27:46;;;;;;;66.70;42.50;;;22.90;99.90;;;;;;5102114;28;20847;-84
2023/05/22 09:30:16;;;;;;;60.07;42.33;;;22.90;99.90;;;;;;5101558;28;20418;-82
2023/05/22 09:32:42;;;;;;;63.17;44.37;;;22.90;99.90;;;;;;5104091;28;20422;-82
2023/05/22 09:35:07;;;;;;;67.90;47.27;;;23.00;99.90;;;;;;5103043;28;20450;-83
2023/05/22 09:37:35;;;;;;;62.40;45.83;;;23.00;99.90;;;;;;5103339;28;20297;-84
2023/05/22 09:40:05;;;;;;;62.67;45.90;;;23.00;99.90;;;;;;5098048;28;20438;-84
2023/05/22 09:42:32;;;;;;;69.97;48.90;;;23.00;99.90;;;;;;5100946;28;20467;-84
2023/05/22 09:45:05;;;;;;;63.90;44.63;;;22.90;99.90;;;;;;5098847;28;20437;-84
2023/05/22 09:47:33;;;;;;;59.10;46.33;;;22.90;99.90;;;;;;5100647;28;20438;-85
2023/05/22 09:50:00;;;;;;;69.53;48.30;;;23.10;99.90;;;;;;5098403;28;20449;-83
2023/05/22 09:52:36;;;;;;;65.17;46.17;;;23.30;99.90;;;;;;5098706;28;20431;-82
2023/05/22 09:55:07;;;;;;;66.93;47.20;;;23.30;99.90;;;;;;5099531;28;20501;-85
2023/05/22 09:57:44;;;;;;;62.53;44.40;;;23.20;99.90;;;;;;5091361;28;20473;-83
2023/05/22 10:00:14;;;;;;;68.43;49.37;;;23.20;99.90;;;;;;5084419;28;20565;-85
2023/05/22 10:02:45;;;;;;;69.63;48.03;;;23.40;99.90;;;;;;5081278;28;20426;-85
2023/05/22 10:05:20;;;;;;;63.00;45.37;;;23.50;99.90;;;;;;5081088;28;20978;-84
2023/05/22 10:07:51;;;;;;;58.63;42.93;;;23.50;99.90;;;;;;5080884;28;20438;-83
2023/05/22 10:10:23;;;;;;;62.10;43.40;;;23.60;99.90;;;;;;5097855;28;20423;-85
2023/05/22 10:12:55;;;;;;;68.67;47.33;;;23.60;99.90;;;;;;5099561;28;20454;-85
2023/05/22 10:15:21;;;;;;;64.97;46.67;;;23.70;99.90;;;;;;5096182;28;20833;-85
2023/05/22 10:17:48;;;;;;;57.33;42.50;;;23.80;99.90;;;;;;5101625;28;20467;-85
2023/05/22 10:20:15;;;;;;;58.87;43.03;;;24.00;99.90;;;;;;5101768;28;20420;-85
2023/05/22 10:22:41;;;;;;;59.10;41.87;;;24.50;99.90;;;;;;5101993;28;20505;-83
2023/05/22 10:25:07;;;;;;;64.23;44.20;;;24.60;99.90;;;;;;5099505;28;20842;-84
2023/05/22 10:27:33;;;;;;;55.70;41.10;;;24.80;99.90;;;;;;5082346;28;20851;-83
2023/05/22 10:30:04;;;;;;;53.30;38.87;;;24.90;99.90;;;;;;5102148;28;20426;-85
2023/05/22 10:32:38;;;;;;;48.73;39.67;;;24.90;99.90;;;;;;5098576;28;20205;-82
2023/05/22 10:35:20;;;;;;;55.60;42.70;;;25.10;99.90;;;;;;5099862;28;20454;-82
2023/05/22 10:37:55;;;;;;;50.23;39.10;;;25.50;99.90;;;;;;5100453;28;20458;-83
2023/05/22 10:40:27;;;;;;;52.00;39.97;;;25.40;99.90;;;;;;5102043;28;20441;-82
2023/05/22 10:43:00;;;;;;;53.27;38.10;;;25.20;99.90;;;;;;5101473;28;20418;-83
2023/05/22 10:45:27;;;;;;;52.07;38.40;;;25.10;99.90;;;;;;5101802;28;20477;-82
2023/05/22 10:48:12;;;;;;;55.73;38.70;;;25.20;99.90;;;;;;5101435;28;20520;-83
2023/05/22 10:50:39;;;;;;;47.63;36.63;;;25.50;99.90;;;;;;5097092;28;20441;-83
2023/05/22 10:53:25;;;;;;;55.53;40.93;;;25.60;99.90;;;;;;5097266;28;20475;-82
2023/05/22 10:55:55;;;;;;;49.20;38.23;;;25.70;99.90;;;;;;5099797;28;20437;-85
2023/05/22 10:58:55;;;;;;;52.63;38.30;;;25.70;99.90;;;;;;5102886;28;20458;-85
2023/05/22 11:01:24;;;;;;;50.30;38.80;;;25.50;99.90;;;;;;5093917;28;20525;-85
2023/05/22 11:03:56;;;;;;;54.10;39.17;;;25.40;99.90;;;;;;5101469;28;20418;-85
2023/05/22 11:06:41;;;;;;;57.47;40.83;;;25.40;99.90;;;;;;5095421;28;20434;-85
2023/05/22 11:09:32;;;;;;;57.43;38.17;;;25.40;99.90;;;;;;5074228;28;20468;-81
2023/05/22 11:12:18;;;;;;;56.20;40.70;;;25.10;99.90;;;;;;5097891;28;20420;-81
2023/05/22 11:14:57;;;;;;;55.20;40.37;;;25.00;99.90;;;;;;5083781;28;20459;-81
2023/05/22 11:17:26;;;;;;;61.03;39.93;;;24.90;99.90;;;;;;5098615;28;20448;-82
2023/05/22 11:20:21;;;;;;;55.30;39.47;;;24.80;99.90;;;;;;5083970;28;20428;-82
2023/05/22 11:22:54;;;;;;;59.17;41.97;;;24.70;99.90;;;;;;5096620;28;20854;-80
2023/05/22 11:25:21;;;;;;;60.63;42.00;;;24.70;99.90;;;;;;5099270;28;20441;-80
2023/05/22 11:27:47;;;;;;;59.40;42.03;;;24.70;99.90;;;;;;5097126;28;20489;-81
2023/05/22 11:30:14;;;;;;;63.90;42.50;;;25.00;99.90;;;;;;5100043;28;20443;-83
2023/05/22 11:32:45;;;;;;;62.93;42.93;;;25.00;99.90;;;;;;5098437;28;20524;-82
2023/05/22 11:35:28;;;;;;;59.60;45.80;;;24.90;99.90;;;;;;5098949;28;20484;-83
2023/05/22 11:37:55;;;;;;;63.43;43.50;;;24.90;99.90;;;;;;5099649;28;20471;-80
2023/05/22 11:40:24;;;;;;;72.37;46.50;;;25.00;99.90;;;;;;5102895;28;20414;-84
2023/05/22 11:42:51;;;;;;;66.90;44.40;;;25.10;99.90;;;;;;5092982;28;20436;-81
2023/05/22 11:45:17;;;;;;;68.63;44.47;;;25.20;99.90;;;;;;5077645;28;20988;-83
2023/05/22 11:47:43;;;;;;;67.10;46.47;;;25.30;99.90;;;;;;5100669;28;20537;-80
2023/05/22 11:50:11;;;;;;;73.70;47.50;;;25.50;99.90;;;;;;5100486;28;20244;-82
2023/05/22 11:52:39;;;;;;;68.07;47.27;;;25.60;99.90;;;;;;5099835;28;20523;-82
2023/05/22 11:55:05;;;;;;;69.53;45.50;;;26.00;99.90;;;;;;5099211;28;20474;-83
2023/05/22 11:57:31;;;;;;;65.83;45.60;;;26.40;99.90;;;;;;5100966;28;20548;-83
2023/05/22 11:59:57;;;;;;;64.10;42.93;;;27.00;99.90;;;;;;5082882;28;20482;-83
2023/05/22 12:02:23;;;;;;;72.37;45.77;;;27.50;99.90;;;;;;5096984;28;20207;-82
2023/05/22 12:04:56;;;;;;;69.07;43.27;;;27.60;99.90;;;;;;5081105;28;20450;-80
2023/05/22 12:07:26;;;;;;;62.70;45.40;;;27.70;99.90;;;;;;5098850;28;20192;-83
2023/05/22 12:09:54;;;;;;;70.13;43.93;;;27.80;99.90;;;;;;5101348;28;20415;-83
2023/05/22 12:12:20;;;;;;;61.80;45.23;;;28.70;99.90;;;;;;5096200;28;20467;-84
2023/05/22 12:14:47;;;;;;;60.10;40.57;;;28.90;99.90;;;;;;5101415;28;20483;-84
2023/05/22 12:17:13;;;;;;;56.10;41.80;;;29.40;99.90;;;;;;5092339;28;20214;-83
2023/05/22 12:19:42;;;;;;;58.53;41.70;;;29.80;99.90;;;;;;5092519;28;20418;-82
2023/05/22 12:22:10;;;;;;;55.93;41.40;;;30.10;99.90;;;;;;5099701;28;20421;-81
2023/05/22 12:24:41;;;;;;;53.67;39.83;;;30.50;99.90;;;;;;5095664;28;20480;-82
2023/05/22 12:27:09;;;;;;;56.50;43.47;;;30.80;99.90;;;;;;5090023;28;20466;-81
2023/05/22 12:29:34;;;;;;;63.93;44.93;;;30.80;99.90;;;;;;5092517;28;20434;-84
2023/05/22 12:32:09;;;;;;;67.60;46.43;;;31.00;99.90;;;;;;5097532;28;20510;-83
2023/05/22 12:34:45;;;;;;;64.00;45.63;;;31.20;99.90;;;;;;5096175;28;20300;-80